createdAt,value
2018-05-08T00:00:03.465Z,2.67
2018-05-08T00:02:33.392Z,2.47
2018-05-08T00:05:04.366Z,2.37
2018-05-08T00:07:35.253Z,2.63
2018-05-08T00:10:05.633Z,2.37
2018-05-08T00:12:36.778Z,2.17
2018-05-08T00:15:07.302Z,2.47
2018-05-08T00:17:37.782Z,2.50
2018-05-08T00:20:07.774Z,2.50
2018-05-08T00:22:37.888Z,2.53
2018-05-08T00:25:08.995Z,2.30
2018-05-08T00:27:39.928Z,2.90
2018-05-08T00:30:10.027Z,2.47
2018-05-08T00:32:41.259Z,2.63
2018-05-08T00:35:11.364Z,2.50
2018-05-08T00:37:42.006Z,2.57
2018-05-08T00:40:12.161Z,2.40
2018-05-08T00:42:42.417Z,2.47
2018-05-08T00:45:12.971Z,3.00
2018-05-08T00:47:43.218Z,2.63
2018-05-08T00:50:13.269Z,2.77
2018-05-08T00:52:43.706Z,2.40
2018-05-08T00:55:14.621Z,2.30
2018-05-08T00:57:44.717Z,2.90
2018-05-08T01:00:15.391Z,2.80
2018-05-08T01:02:45.448Z,2.73
2018-05-08T01:05:15.890Z,2.40
2018-05-08T01:07:46.048Z,2.40
2018-05-08T01:10:17.288Z,2.50
2018-05-08T01:12:48.180Z,2.73
2018-05-08T01:15:18.283Z,2.73
2018-05-08T01:17:48.488Z,3.07
2018-05-08T01:20:19.126Z,2.60
2018-05-08T01:22:49.078Z,2.67
2018-05-08T01:25:19.625Z,2.50
2018-05-08T01:27:49.492Z,2.93
2018-05-08T01:30:19.707Z,2.60
2018-05-08T01:32:49.982Z,2.60
2018-05-08T01:35:20.071Z,2.50
2018-05-08T01:37:50.584Z,2.50
2018-05-08T01:40:20.832Z,2.77
2018-05-08T01:42:51.770Z,2.87
2018-05-08T01:45:22.015Z,2.90
2018-05-08T01:47:52.238Z,2.63
2018-05-08T01:50:22.794Z,2.80
2018-05-08T01:52:53.075Z,2.97
2018-05-08T01:55:23.009Z,2.97
2018-05-08T01:57:53.507Z,2.53
2018-05-08T02:00:24.286Z,2.93
2018-05-08T02:02:54.447Z,3.07
2018-05-08T02:05:25.171Z,2.60
2018-05-08T02:07:55.779Z,2.97
2018-05-08T02:10:27.011Z,3.23
2018-05-08T02:12:57.046Z,2.87
2018-05-08T02:15:27.810Z,3.00
2018-05-08T02:17:58.182Z,2.90
2018-05-08T02:20:28.408Z,2.80
2018-05-08T02:22:58.509Z,2.70
2018-05-08T02:25:29.397Z,3.10
2018-05-08T02:28:00.324Z,3.07
2018-05-08T02:30:31.569Z,2.83
2018-05-08T02:33:02.909Z,3.20
2018-05-08T02:35:33.068Z,3.03
2018-05-08T02:38:03.148Z,2.60
2018-05-08T02:40:33.152Z,2.87
2018-05-08T02:43:03.847Z,2.73
2018-05-08T02:45:34.272Z,2.90
2018-05-08T02:48:05.096Z,3.23
2018-05-08T02:50:35.197Z,2.80
2018-05-08T02:53:06.201Z,3.17
2018-05-08T02:55:37.251Z,2.97
2018-05-08T02:58:07.269Z,3.07
2018-05-08T03:00:38.068Z,3.00
2018-05-08T03:03:08.314Z,3.27
2018-05-08T03:05:38.266Z,3.47
2018-05-08T03:08:08.379Z,3.30
2018-05-08T03:10:40.447Z,2.90
2018-05-08T03:13:11.401Z,2.90
2018-05-08T03:15:41.610Z,3.40
2018-05-08T03:18:14.347Z,3.00
2018-05-08T03:20:44.430Z,3.60
2018-05-08T03:23:14.996Z,3.27
2018-05-08T03:25:45.152Z,3.00
2018-05-08T03:28:15.762Z,3.23
2018-05-08T03:30:46.303Z,3.00
2018-05-08T03:33:16.531Z,3.10
2018-05-08T03:35:47.374Z,3.63
2018-05-08T03:38:19.241Z,3.47
2018-05-08T03:40:50.097Z,2.80
2018-05-08T03:43:20.936Z,3.23
2018-05-08T03:45:50.991Z,2.77
2018-05-08T03:48:21.992Z,2.87
2018-05-08T03:50:52.425Z,3.10
2018-05-08T03:53:22.276Z,3.00
2018-05-08T03:55:52.232Z,3.20
2018-05-08T03:58:24.138Z,3.13
2018-05-08T04:05:16.836Z,2.80
2018-05-08T04:08:49.308Z,3.10
2018-05-08T04:11:19.964Z,2.70
2018-05-08T04:13:50.009Z,3.00
2018-05-08T04:16:19.923Z,3.27
2018-05-08T04:18:50.237Z,3.00
2018-05-08T04:21:21.007Z,3.00
2018-05-08T04:23:51.075Z,3.20
2018-05-08T04:26:23.221Z,3.10
2018-05-08T04:28:53.303Z,3.20
2018-05-08T04:31:23.255Z,2.80
2018-05-08T04:33:55.824Z,3.20
2018-05-08T04:36:26.370Z,3.37
2018-05-08T04:38:56.542Z,3.20
2018-05-08T04:41:26.635Z,2.87
2018-05-08T04:43:57.353Z,3.60
2018-05-08T04:46:27.604Z,3.27
2018-05-08T04:48:58.535Z,3.33
2018-05-08T04:51:29.425Z,3.40
2018-05-08T04:54:01.451Z,3.43
2018-05-08T04:56:31.489Z,3.17
2018-05-08T04:59:02.786Z,3.20
2018-05-08T05:01:32.663Z,3.10
2018-05-08T05:04:03.370Z,2.77
2018-05-08T05:06:36.576Z,2.90
2018-05-08T05:09:07.340Z,3.60
2018-05-08T05:11:37.530Z,3.30
2018-05-08T05:14:08.466Z,3.13
2018-05-08T05:19:51.674Z,2.80
2018-05-08T05:22:23.089Z,2.80
2018-05-08T05:24:53.648Z,2.90
2018-05-08T05:27:25.745Z,2.60
2018-05-08T05:29:57.803Z,2.40
2018-05-08T05:32:29.664Z,2.90
2018-05-08T05:34:59.789Z,2.90
2018-05-08T05:37:35.308Z,3.00
2018-05-08T05:40:06.228Z,2.50
2018-05-08T05:42:36.874Z,2.97
2018-05-08T05:45:08.161Z,2.42
2018-05-08T05:47:38.263Z,2.37
2018-05-08T05:50:08.686Z,2.50
2018-05-08T05:52:47.194Z,2.50
2018-05-08T05:55:24.359Z,2.10
2018-05-08T05:57:59.820Z,2.70
2018-05-08T06:00:30.875Z,2.97
2018-05-08T06:03:02.066Z,2.53
2018-05-08T06:05:32.486Z,2.83
2018-05-08T06:08:02.822Z,2.53
2018-05-08T06:10:44.047Z,2.40
2018-05-08T06:13:17.096Z,2.50
2018-05-08T06:15:48.830Z,2.80
2018-05-08T06:18:20.999Z,2.93
2018-05-08T06:20:51.766Z,2.33
2018-05-08T06:23:22.821Z,2.30
2018-05-08T06:25:53.670Z,2.43
2018-05-08T06:28:24.572Z,2.23
2018-05-08T06:31:05.104Z,2.40
2018-05-08T06:33:36.012Z,2.27
2018-05-08T06:36:07.530Z,2.57
2018-05-08T06:38:37.553Z,2.30
2018-05-08T06:41:07.638Z,2.10
2018-05-08T06:43:38.158Z,2.20
2018-05-08T06:46:09.865Z,2.10
2018-05-08T06:48:41.960Z,2.07
2018-05-08T06:51:16.330Z,2.37
2018-05-08T06:53:49.036Z,2.00
2018-05-08T06:56:19.303Z,1.77
2018-05-08T06:58:50.914Z,1.80
2018-05-08T07:01:21.116Z,2.50
2018-05-08T07:03:52.414Z,1.80
2018-05-08T07:06:23.739Z,2.50
2018-05-08T07:08:55.370Z,2.07
2018-05-08T07:11:27.348Z,2.03
2018-05-08T07:14:00.901Z,1.90
2018-05-08T07:16:31.948Z,1.77
2018-05-08T07:19:02.654Z,2.37
2018-05-08T07:21:33.847Z,2.10
2018-05-08T07:24:05.305Z,2.20
2018-05-08T07:26:36.002Z,2.00
2018-05-08T07:29:08.155Z,2.00
2018-05-08T07:31:40.566Z,2.27
2018-05-08T07:34:10.999Z,2.13
2018-05-08T07:36:42.319Z,2.17
2018-05-08T07:39:13.100Z,2.08
2018-05-08T07:41:45.200Z,2.10
2018-05-08T07:44:16.556Z,2.00
2018-05-08T07:46:47.179Z,1.87
2018-05-08T07:49:17.173Z,1.70
2018-05-08T07:51:49.385Z,2.40
2018-05-08T07:54:19.616Z,1.90
2018-05-08T07:56:50.682Z,2.47
2018-05-08T07:59:21.055Z,2.30
2018-05-08T08:01:51.352Z,2.30
2018-05-08T08:04:23.503Z,2.17
2018-05-08T08:06:54.962Z,2.30
2018-05-08T08:09:25.228Z,2.00
2018-05-08T08:11:56.855Z,2.27
2018-05-08T08:14:29.616Z,2.10
2018-05-08T08:17:00.588Z,1.80
2018-05-08T08:19:32.576Z,1.95
2018-05-08T08:22:02.960Z,2.20
2018-05-08T08:24:35.900Z,2.30
2018-05-08T08:27:06.459Z,1.80
2018-05-08T08:29:38.332Z,2.00
2018-05-08T08:32:09.026Z,1.90
2018-05-08T08:34:39.122Z,2.03
2018-05-08T08:37:09.877Z,2.10
2018-05-08T08:39:40.253Z,1.80
2018-05-08T08:42:12.181Z,1.57
2018-05-08T08:44:51.629Z,2.00
2018-05-08T08:47:22.020Z,2.47
2018-05-08T08:49:53.061Z,1.97
2018-05-08T08:52:23.439Z,1.77
2018-05-08T08:54:53.844Z,2.00
2018-05-08T08:57:24.188Z,1.87
2018-05-08T08:59:55.973Z,1.90
2018-05-08T09:02:27.408Z,1.90
2018-05-08T09:04:58.998Z,1.60
2018-05-08T09:07:35.342Z,2.07
2018-05-08T09:10:08.627Z,2.45
2018-05-08T09:12:40.393Z,2.00
2018-05-08T09:15:12.565Z,2.00
2018-05-08T09:17:44.399Z,2.03
2018-05-08T09:20:16.637Z,2.00
2018-05-08T09:22:57.606Z,1.80
2018-05-08T09:25:30.387Z,2.00
2018-05-08T09:28:00.651Z,2.00
2018-05-08T09:30:32.652Z,1.80
2018-05-08T09:33:04.234Z,2.00
2018-05-08T09:36:05.667Z,1.80
2018-05-08T09:38:39.043Z,1.80
2018-05-08T09:41:09.682Z,1.80
2018-05-08T09:43:42.353Z,2.00
2018-05-08T09:46:13.811Z,1.83
2018-05-08T09:48:44.184Z,1.93
2018-05-08T09:51:15.365Z,1.70
2018-05-08T09:53:46.405Z,1.67
2018-05-08T09:56:18.716Z,1.83
2018-05-08T09:58:50.022Z,1.77
2018-05-08T10:01:23.566Z,1.70
2018-05-08T10:03:53.976Z,1.70
2018-05-08T10:06:28.296Z,1.87
2018-05-08T10:09:00.049Z,1.67
2018-05-08T10:11:34.676Z,1.80
2018-05-08T10:14:09.503Z,1.70
2018-05-08T10:16:41.337Z,2.10
2018-05-08T10:19:12.324Z,1.90
2018-05-08T10:21:43.466Z,1.87
2018-05-08T10:24:14.997Z,2.00
2018-05-08T10:26:50.959Z,1.70
2018-05-08T10:29:25.390Z,1.90
2018-05-08T10:31:55.720Z,1.60
2018-05-08T10:34:30.908Z,1.70
2018-05-08T10:37:03.497Z,1.80
2018-05-08T10:39:35.407Z,1.67
2018-05-08T10:42:07.364Z,1.63
2018-05-08T10:44:40.927Z,1.60
2018-05-08T10:47:11.675Z,2.00
2018-05-08T10:49:43.521Z,2.10
2018-05-08T10:52:17.221Z,1.43
2018-05-08T10:54:50.298Z,1.80
2018-05-08T10:57:22.739Z,1.67
2018-05-08T10:59:54.553Z,1.70
2018-05-08T11:02:28.858Z,2.13
2018-05-08T11:05:05.224Z,1.63
2018-05-08T11:07:40.519Z,1.60
2018-05-08T11:10:12.870Z,1.97
2018-05-08T11:12:43.709Z,1.50
2018-05-08T11:15:17.026Z,1.63
2018-05-08T11:17:49.174Z,1.97
2018-05-08T11:20:22.137Z,1.63
2018-05-08T11:22:55.307Z,2.03
2018-05-08T11:25:36.653Z,1.83
2018-05-08T11:28:15.305Z,2.63
2018-05-08T11:30:48.397Z,1.63
2018-05-08T11:33:20.780Z,1.70
2018-05-08T11:35:54.303Z,1.80
2018-05-08T11:38:26.769Z,1.80
2018-05-08T11:41:01.553Z,1.43
2018-05-08T11:43:36.049Z,1.70
2018-05-08T11:46:09.252Z,1.60
2018-05-08T11:48:44.396Z,2.05
2018-05-08T11:51:26.604Z,1.90
2018-05-08T11:53:58.767Z,1.73
2018-05-08T11:56:37.209Z,2.00
2018-05-08T11:59:09.656Z,1.70
2018-05-08T12:01:41.055Z,1.97
2018-05-08T12:04:13.627Z,1.50
2018-05-08T12:06:46.024Z,1.80
2018-05-08T12:09:19.429Z,1.90
2018-05-08T12:11:55.748Z,1.60
2018-05-08T12:14:27.286Z,2.87
2018-05-08T12:16:59.476Z,2.00
2018-05-08T12:19:33.710Z,1.57
2018-05-08T12:22:15.652Z,1.73
2018-05-08T12:24:47.525Z,1.57
2018-05-08T12:27:22.192Z,1.83
2018-05-08T12:29:55.593Z,1.50
2018-05-08T12:32:29.547Z,1.60
2018-05-08T12:35:02.289Z,1.50
2018-05-08T12:37:34.522Z,1.50
2018-05-08T12:40:12.028Z,1.63
2018-05-08T12:42:44.850Z,1.60
2018-05-08T12:45:19.251Z,1.43
2018-05-08T12:47:51.280Z,1.40
2018-05-08T12:50:22.736Z,1.80
2018-05-08T12:52:54.106Z,1.73
2018-05-08T12:55:25.622Z,2.40
2018-05-08T12:57:58.692Z,1.93
2018-05-08T13:00:32.050Z,1.70
2018-05-08T13:03:02.844Z,1.50
2018-05-08T13:05:34.165Z,1.50
2018-05-08T13:08:07.686Z,1.63
2018-05-08T13:10:43.596Z,1.63
2018-05-08T13:13:18.484Z,1.80
2018-05-08T13:15:49.084Z,1.70
2018-05-08T13:18:23.117Z,1.83
2018-05-08T13:20:59.808Z,1.83
2018-05-08T13:23:36.720Z,3.33
2018-05-08T13:26:08.203Z,1.87
2018-05-08T13:28:43.090Z,1.70
2018-05-08T13:31:15.548Z,1.90
2018-05-08T13:33:47.182Z,2.00
2018-05-08T13:36:19.444Z,1.70
2018-05-08T13:38:50.495Z,2.17
2018-05-08T13:41:22.713Z,1.70
2018-05-08T13:43:59.526Z,1.80
2018-05-08T13:46:32.715Z,1.73
2018-05-08T13:49:06.153Z,1.80
2018-05-08T13:51:40.278Z,1.73
2018-05-08T13:54:11.721Z,1.90
2018-05-08T13:56:43.319Z,1.87
2018-05-08T13:59:16.731Z,1.57
2018-05-08T14:01:48.545Z,1.67
2018-05-08T14:04:21.401Z,2.00
2018-05-08T14:06:55.266Z,1.80
2018-05-08T14:09:26.882Z,1.90
2018-05-08T14:12:00.097Z,1.70
2018-05-08T14:14:32.231Z,1.80
2018-05-08T14:17:03.805Z,1.87
2018-05-08T14:19:37.351Z,1.70
2018-05-08T14:22:13.909Z,2.00
2018-05-08T14:24:46.900Z,1.60
2018-05-08T14:27:17.845Z,1.90
2018-05-08T14:29:50.396Z,2.13
2018-05-08T14:32:22.928Z,2.10
2018-05-08T14:34:54.309Z,2.10
2018-05-08T14:37:26.134Z,1.80
2018-05-08T14:39:59.219Z,1.87
2018-05-08T14:42:32.177Z,2.00
2018-05-08T14:45:07.757Z,2.07
2018-05-08T14:47:41.784Z,2.13
2018-05-08T14:50:18.665Z,1.90
2018-05-08T14:52:50.588Z,1.97
2018-05-08T14:55:22.484Z,1.57
2018-05-08T14:57:53.929Z,1.97
2018-05-08T15:00:26.352Z,1.77
2018-05-08T15:02:59.145Z,2.00
2018-05-08T15:05:30.517Z,2.70
2018-05-08T15:08:02.268Z,2.20
2018-05-08T15:10:34.368Z,2.00
2018-05-08T15:13:09.644Z,1.80
2018-05-08T15:15:41.932Z,1.70
2018-05-08T15:18:12.761Z,1.70
2018-05-08T15:20:45.757Z,2.30
2018-05-08T15:23:18.214Z,1.90
2018-05-08T15:25:49.692Z,1.77
2018-05-08T15:28:22.257Z,1.70
2018-05-08T15:30:53.400Z,1.80
2018-05-08T15:33:25.068Z,1.90
2018-05-08T15:35:55.687Z,2.33
2018-05-08T15:38:27.495Z,2.20
2018-05-08T15:41:00.477Z,2.13
2018-05-08T15:43:32.309Z,1.60
2018-05-08T15:46:03.578Z,2.13
2018-05-08T15:48:34.099Z,2.13
2018-05-08T15:51:06.255Z,2.30
2018-05-08T15:53:37.035Z,3.17
2018-05-08T15:56:08.468Z,1.83
2018-05-08T15:58:40.128Z,1.90
2018-05-08T16:01:16.318Z,2.33
2018-05-08T16:03:49.241Z,1.90
2018-05-08T16:06:21.477Z,2.03
2018-05-08T16:08:53.184Z,1.57
2018-05-08T16:11:25.616Z,1.90
2018-05-08T16:13:58.008Z,2.30
2018-05-08T16:16:28.981Z,2.27
2018-05-08T16:19:00.316Z,2.07
2018-05-08T16:21:31.621Z,2.20
2018-05-08T16:24:03.904Z,2.00
2018-05-08T16:26:34.521Z,1.77
2018-05-08T16:29:06.577Z,1.90
2018-05-08T16:31:39.352Z,2.00
2018-05-08T16:34:10.653Z,1.80
2018-05-08T16:36:44.078Z,2.10
2018-05-08T16:39:14.907Z,1.87
2018-05-08T16:41:46.247Z,1.93
2018-05-08T16:44:17.441Z,1.90
2018-05-08T16:46:48.645Z,3.40
2018-05-08T16:49:22.908Z,1.80
2018-05-08T16:51:54.387Z,1.67
2018-05-08T16:54:25.828Z,1.63
2018-05-08T16:56:57.087Z,2.10
2018-05-08T16:59:30.356Z,1.63
2018-05-08T17:02:03.909Z,2.37
2018-05-08T17:04:35.424Z,2.00
2018-05-08T17:07:06.842Z,2.17
2018-05-08T17:09:40.358Z,1.80
2018-05-08T17:12:11.756Z,1.87
2018-05-08T17:14:43.444Z,1.80
2018-05-08T17:17:14.729Z,1.87
2018-05-08T17:19:46.139Z,1.90
2018-05-08T17:22:19.113Z,1.77
2018-05-08T17:24:49.829Z,1.83
2018-05-08T17:27:21.421Z,1.77
2018-05-08T17:29:52.485Z,1.80
2018-05-08T17:32:23.128Z,1.53
2018-05-08T17:34:54.801Z,2.10
2018-05-08T17:37:25.546Z,2.07
2018-05-08T17:39:57.083Z,2.10
2018-05-08T17:42:28.402Z,1.70
2018-05-08T17:44:59.028Z,1.70
2018-05-08T17:47:30.245Z,1.87
2018-05-08T17:50:01.411Z,1.80
2018-05-08T17:52:33.133Z,2.10
2018-05-08T17:55:04.288Z,1.70
2018-05-08T17:57:35.668Z,2.00
2018-05-08T18:00:07.194Z,2.00
2018-05-08T18:02:37.499Z,1.70
2018-05-08T18:05:08.031Z,1.90
2018-05-08T18:07:42.170Z,1.90
2018-05-08T18:10:14.877Z,1.57
2018-05-08T18:12:59.781Z,1.60
2018-05-08T18:15:32.764Z,1.90
2018-05-08T18:18:03.638Z,1.77
2018-05-08T18:20:35.639Z,2.10
2018-05-08T18:23:07.034Z,1.63
2018-05-08T18:25:37.534Z,1.70
2018-05-08T18:28:09.140Z,2.07
2018-05-08T18:30:40.477Z,1.90
2018-05-08T18:33:12.100Z,1.80
2018-05-08T18:35:43.106Z,1.80
2018-05-08T18:38:14.923Z,1.80
2018-05-08T18:40:45.864Z,1.90
2018-05-08T18:43:16.657Z,1.57
2018-05-08T18:45:47.748Z,2.00
2018-05-08T18:48:19.294Z,1.80
2018-05-08T18:50:52.294Z,2.00
2018-05-08T18:53:25.194Z,1.87
2018-05-08T18:55:56.553Z,1.83
2018-05-08T18:58:26.782Z,2.20
2018-05-08T19:00:57.062Z,2.00
2018-05-08T19:03:29.518Z,1.90
2018-05-08T19:06:00.684Z,1.93
2018-05-08T19:08:32.633Z,2.07
2018-05-08T19:11:08.821Z,1.60
2018-05-08T19:13:39.731Z,1.90
2018-05-08T19:16:12.051Z,1.80
2018-05-08T19:18:47.382Z,1.70
2018-05-08T19:21:21.027Z,2.10
2018-05-08T19:23:56.784Z,2.40
2018-05-08T19:26:28.395Z,2.40
2018-05-08T19:31:07.214Z,2.20
2018-05-08T19:33:40.608Z,2.13
2018-05-08T19:36:16.198Z,2.00
2018-05-08T19:38:47.462Z,1.67
2018-05-08T19:41:18.614Z,1.63
2018-05-08T19:43:50.183Z,1.93
2018-05-08T19:46:21.942Z,2.17
2018-05-08T19:48:54.076Z,2.23
2018-05-08T19:51:25.176Z,2.30
2018-05-08T19:53:56.237Z,1.80
2018-05-08T19:56:26.975Z,2.00
2018-05-08T19:58:59.091Z,2.20
2018-05-08T20:01:30.562Z,2.20
2018-05-08T20:04:01.513Z,2.20
2018-05-08T20:06:33.357Z,1.97
2018-05-08T20:09:05.030Z,2.07
2018-05-08T20:11:35.469Z,1.93
2018-05-08T20:14:06.565Z,2.17
2018-05-08T20:16:36.787Z,2.10
2018-05-08T20:19:07.224Z,2.13
2018-05-08T20:21:38.056Z,1.97
2018-05-08T20:24:08.249Z,2.00
2018-05-08T20:26:40.801Z,1.80
2018-05-08T20:29:12.568Z,2.10
2018-05-08T20:31:42.875Z,2.20
2018-05-08T20:34:13.432Z,2.10
2018-05-08T20:36:43.614Z,2.00
2018-05-08T20:39:14.548Z,2.00
2018-05-08T20:41:44.789Z,1.73
2018-05-08T20:44:14.771Z,2.03
2018-05-08T20:46:47.476Z,2.90
2018-05-08T20:49:18.526Z,2.03
2018-05-08T20:51:49.142Z,2.00
2018-05-08T20:54:21.921Z,2.10
2018-05-08T20:56:53.553Z,2.30
2018-05-08T20:59:24.055Z,2.30
2018-05-08T21:01:54.895Z,2.03
2018-05-08T21:04:25.277Z,2.10
2018-05-08T21:06:56.989Z,1.90
2018-05-08T21:09:27.555Z,2.40
2018-05-08T21:11:59.320Z,1.93
2018-05-08T21:14:30.968Z,1.80
2018-05-08T21:17:02.573Z,1.90
2018-05-08T21:19:34.384Z,2.13
2018-05-08T21:22:07.035Z,2.13
2018-05-08T21:24:37.349Z,2.03
2018-05-08T21:27:08.876Z,1.97
2018-05-08T21:29:44.344Z,2.10
2018-05-08T21:32:15.401Z,2.00
2018-05-08T21:34:45.687Z,2.00
2018-05-08T21:37:15.832Z,1.90
2018-05-08T21:39:48.160Z,2.10
2018-05-08T21:42:19.660Z,1.73
2018-05-08T21:44:51.411Z,1.87
2018-05-08T21:47:22.074Z,1.97
2018-05-08T21:49:53.006Z,2.20
2018-05-08T21:52:24.085Z,2.17
2018-05-08T21:54:54.538Z,2.17
2018-05-08T21:57:24.891Z,2.00
2018-05-08T21:59:54.923Z,1.90
2018-05-08T22:02:25.326Z,1.97
2018-05-08T22:04:55.923Z,2.37
2018-05-08T22:07:26.456Z,2.00
2018-05-08T22:09:56.534Z,2.10
2018-05-08T22:12:26.824Z,2.00
2018-05-08T22:14:57.818Z,1.87
2018-05-08T22:17:27.934Z,2.00
2018-05-08T22:19:58.287Z,2.00
2018-05-08T22:22:28.893Z,2.10
2018-05-08T22:24:59.757Z,2.17
2018-05-08T22:27:30.842Z,2.33
2018-05-08T22:30:02.285Z,2.40
2018-05-08T22:32:32.226Z,2.30
2018-05-08T22:35:03.544Z,2.20
2018-05-08T22:37:35.809Z,2.30
2018-05-08T22:40:06.858Z,2.20
2018-05-08T22:42:37.145Z,2.20
2018-05-08T22:45:08.070Z,2.50
2018-05-08T22:47:39.371Z,2.60
2018-05-08T22:50:09.944Z,2.23
2018-05-08T22:52:39.902Z,2.23
2018-05-08T22:55:11.222Z,2.30
2018-05-08T22:57:42.081Z,2.30
2018-05-08T23:00:13.252Z,2.23
2018-05-08T23:02:43.874Z,2.30
2018-05-08T23:05:15.037Z,2.40
2018-05-08T23:07:45.701Z,2.17
2018-05-08T23:10:15.713Z,2.30
2018-05-08T23:12:45.742Z,2.40
2018-05-08T23:15:16.369Z,2.23
2018-05-08T23:17:46.593Z,2.27
2018-05-08T23:20:16.690Z,2.30
2018-05-08T23:22:47.208Z,2.20
2018-05-08T23:25:17.942Z,2.00
2018-05-08T23:27:49.296Z,1.77
2018-05-08T23:30:19.604Z,2.10
2018-05-08T23:32:50.588Z,2.20
2018-05-08T23:35:21.071Z,2.10
2018-05-08T23:37:51.522Z,2.30
2018-05-08T23:40:21.909Z,2.03
2018-05-08T23:42:53.039Z,2.40
2018-05-08T23:45:24.811Z,2.10
2018-05-08T23:47:55.424Z,2.20
2018-05-08T23:50:26.011Z,2.10
2018-05-08T23:52:56.489Z,2.30
2018-05-08T23:55:27.387Z,2.27
2018-05-08T23:57:58.829Z,2.10
